createdAt,value
2018-12-23T00:01:07.131Z,7.93
2018-12-23T00:12:54.008Z,18.17
2018-12-23T00:40:02.153Z,6.50
2018-12-23T00:42:47.762Z,10.43
2018-12-23T00:45:35.622Z,9.70
2018-12-23T01:03:24.668Z,11.87
2018-12-23T01:05:59.299Z,8.60
2018-12-23T01:08:42.040Z,11.10
2018-12-23T01:17:32.683Z,11.17
2018-12-23T01:38:10.993Z,9.40
2018-12-23T01:43:49.984Z,10.60
2018-12-23T01:46:18.491Z,13.27
2018-12-23T01:48:46.575Z,5.80
2018-12-23T01:51:27.128Z,11.70
2018-12-23T01:53:55.174Z,12.73
2018-12-23T01:56:33.283Z,8.77
2018-12-23T02:20:18.697Z,11.63
2018-12-23T02:23:10.008Z,8.07
2018-12-23T02:25:56.404Z,9.73
2018-12-23T02:28:41.296Z,8.00
2018-12-23T02:34:12.017Z,16.10
2018-12-23T02:36:58.423Z,6.03
2018-12-23T02:45:50.839Z,13.47
2018-12-23T02:48:24.877Z,14.90
2018-12-23T02:57:11.012Z,9.23
2018-12-23T02:59:52.056Z,23.90
2018-12-23T03:02:33.400Z,13.90
2018-12-23T03:05:17.701Z,9.33
2018-12-23T03:08:05.151Z,9.73
2018-12-23T03:13:35.866Z,9.57
2018-12-23T03:16:23.430Z,15.13
2018-12-23T03:21:49.125Z,13.00
2018-12-23T03:27:42.869Z,19.20
2018-12-23T03:30:33.655Z,5.53
2018-12-23T03:33:01.823Z,7.33
2018-12-23T03:38:38.161Z,9.37
2018-12-23T03:41:23.048Z,5.60
2018-12-23T03:44:09.852Z,12.93
2018-12-23T03:46:56.977Z,10.50
2018-12-23T03:49:46.590Z,9.70
2018-12-23T04:07:49.882Z,6.37
2018-12-23T04:28:33.607Z,5.87
2018-12-23T04:31:01.410Z,14.73
2018-12-23T04:42:45.955Z,17.53
2018-12-23T05:03:28.948Z,8.83
2018-12-23T05:09:10.447Z,17.67
2018-12-23T05:23:58.469Z,9.83
2018-12-23T05:29:30.240Z,10.13
2018-12-23T05:32:01.693Z,11.03
2018-12-23T05:37:40.757Z,11.73
2018-12-23T05:43:21.432Z,10.27
2018-12-23T05:46:07.966Z,14.10
2018-12-23T05:48:50.259Z,10.30
2018-12-23T05:54:19.242Z,9.03
2018-12-23T06:00:07.999Z,14.17
2018-12-23T06:02:51.812Z,7.60
2018-12-23T06:05:36.144Z,13.90
2018-12-23T06:08:25.009Z,9.10
2018-12-23T06:20:21.228Z,8.00
2018-12-23T06:22:55.385Z,9.60
2018-12-23T06:25:45.503Z,5.90
2018-12-23T06:28:30.136Z,14.03
2018-12-23T06:37:12.481Z,9.50
2018-12-23T06:40:00.349Z,9.50
2018-12-23T06:45:49.265Z,8.83
2018-12-23T06:48:37.713Z,8.17
2018-12-23T06:51:20.613Z,7.73
2018-12-23T07:00:07.068Z,10.87
2018-12-23T07:02:35.164Z,8.00
2018-12-23T07:05:22.445Z,12.77
2018-12-23T07:08:00.922Z,8.80
2018-12-23T07:19:52.081Z,10.50
2018-12-23T07:28:24.937Z,9.90
2018-12-23T07:34:12.106Z,6.77
2018-12-23T07:36:54.567Z,13.33
2018-12-23T07:39:24.621Z,8.03
2018-12-23T07:41:53.005Z,13.53
2018-12-23T07:44:37.429Z,8.60
2018-12-23T07:47:20.064Z,7.63
2018-12-23T07:50:10.604Z,8.37
2018-12-23T08:08:11.887Z,12.83
2018-12-23T08:10:58.299Z,10.77
2018-12-23T08:28:15.552Z,8.43
2018-12-23T08:33:50.893Z,9.43
2018-12-23T08:39:34.232Z,13.30
2018-12-23T08:42:13.332Z,21.50
2018-12-23T08:44:43.012Z,14.50
2018-12-23T08:53:17.758Z,11.63
2018-12-23T08:55:47.415Z,16.03
2018-12-23T08:58:15.560Z,14.33
2018-12-23T09:00:43.631Z,13.90
2018-12-23T09:03:18.877Z,21.23
2018-12-23T09:05:43.746Z,14.63
2018-12-23T09:08:22.209Z,8.97
2018-12-23T09:10:50.403Z,18.47
2018-12-23T09:13:18.849Z,16.87
2018-12-23T09:15:49.447Z,12.33
2018-12-23T09:18:25.129Z,10.53
2018-12-23T09:20:53.399Z,12.27
2018-12-23T09:28:38.742Z,12.27
2018-12-23T09:31:09.036Z,20.93
2018-12-23T09:33:37.519Z,15.60
2018-12-23T09:36:06.174Z,9.50
2018-12-23T09:38:50.508Z,13.30
2018-12-23T09:41:19.735Z,18.10
2018-12-23T09:43:52.799Z,20.00
2018-12-23T09:46:40.810Z,13.30
2018-12-23T09:49:36.428Z,20.57
2018-12-23T09:52:05.172Z,18.03
2018-12-23T09:54:35.518Z,12.87
2018-12-23T09:57:04.130Z,18.10
2018-12-23T09:59:32.232Z,23.03
2018-12-23T10:02:09.722Z,14.00
2018-12-23T10:04:38.757Z,23.07
2018-12-23T10:07:08.825Z,27.23
2018-12-23T10:09:36.942Z,17.20
2018-12-23T10:12:06.770Z,18.37
2018-12-23T10:14:35.119Z,20.90
2018-12-23T10:17:03.269Z,24.80
2018-12-23T10:19:31.357Z,15.63
2018-12-23T10:22:04.800Z,15.80
2018-12-23T10:27:18.547Z,20.20
2018-12-23T10:29:46.602Z,14.40
2018-12-23T10:32:14.874Z,14.40
2018-12-23T10:34:47.538Z,34.27
2018-12-23T10:37:16.749Z,18.60
2018-12-23T10:39:44.847Z,19.03
2018-12-23T10:42:12.930Z,15.97
2018-12-23T10:44:43.246Z,27.53
2018-12-23T10:47:12.887Z,14.43
2018-12-23T10:49:40.882Z,20.33
2018-12-23T10:52:10.235Z,17.27
2018-12-23T10:54:38.303Z,14.70
2018-12-23T10:57:08.022Z,15.90
2018-12-23T10:59:36.821Z,23.33
2018-12-23T11:02:18.270Z,15.13
2018-12-23T11:04:47.227Z,22.70
2018-12-23T11:07:19.905Z,21.77
2018-12-23T11:10:02.268Z,28.97
2018-12-23T11:12:33.647Z,19.13
2018-12-23T11:15:04.501Z,20.23
2018-12-23T11:17:33.355Z,20.17
2018-12-23T11:20:12.401Z,30.90
2018-12-23T11:22:41.191Z,19.47
2018-12-23T11:25:10.849Z,21.70
2018-12-23T11:27:42.132Z,24.73
2018-12-23T11:30:10.561Z,20.53
2018-12-23T11:32:41.718Z,27.97
2018-12-23T11:35:09.678Z,27.33
2018-12-23T11:40:19.542Z,21.77
2018-12-23T11:42:53.956Z,16.43
2018-12-23T11:45:23.107Z,24.60
2018-12-23T11:47:51.690Z,19.10
2018-12-23T11:50:27.189Z,22.70
2018-12-23T11:52:57.277Z,24.80
2018-12-23T11:55:25.484Z,26.03
2018-12-23T11:57:53.712Z,17.50
2018-12-23T12:00:22.332Z,28.73
2018-12-23T12:02:50.329Z,19.63
2018-12-23T12:05:18.380Z,16.27
2018-12-23T12:07:46.347Z,15.83
2018-12-23T12:10:14.588Z,19.03
2018-12-23T12:12:42.892Z,22.80
2018-12-23T12:15:10.872Z,22.50
2018-12-23T12:17:38.758Z,20.43
2018-12-23T12:20:07.397Z,23.40
2018-12-23T12:22:44.821Z,15.73
2018-12-23T12:25:14.294Z,27.73
2018-12-23T12:27:42.288Z,21.00
2018-12-23T12:30:10.391Z,26.10
2018-12-23T12:32:38.873Z,16.53
2018-12-23T12:35:07.518Z,23.20
2018-12-23T12:37:35.948Z,18.97
2018-12-23T12:40:04.173Z,26.77
2018-12-23T12:42:32.353Z,19.30
2018-12-23T12:45:01.072Z,24.03
2018-12-23T12:47:30.437Z,21.50
2018-12-23T12:49:58.705Z,18.03
2018-12-23T12:52:27.099Z,20.90
2018-12-23T12:54:55.272Z,33.97
2018-12-23T12:57:24.174Z,19.87
2018-12-23T12:59:52.460Z,21.80
2018-12-23T13:02:21.412Z,22.17
2018-12-23T13:04:49.512Z,24.60
2018-12-23T13:07:17.554Z,26.33
2018-12-23T13:09:48.287Z,20.57
2018-12-23T13:12:16.257Z,29.87
2018-12-23T13:14:45.645Z,18.53
2018-12-23T13:17:14.134Z,29.70
2018-12-23T13:19:42.102Z,29.17
2018-12-23T13:22:10.422Z,22.93
2018-12-23T13:24:38.507Z,21.77
2018-12-23T13:27:06.519Z,14.30
2018-12-23T13:33:38.893Z,15.67
2018-12-23T13:47:34.384Z,19.23
2018-12-23T13:50:40.872Z,11.07
2018-12-23T13:53:54.511Z,20.53
2018-12-23T13:59:30.850Z,21.50
2018-12-23T14:02:39.921Z,15.43
2018-12-23T14:05:35.525Z,18.43
2018-12-23T14:08:16.700Z,18.63
2018-12-23T14:14:23.042Z,29.43
2018-12-23T14:16:51.837Z,18.73
2018-12-23T14:19:23.588Z,13.57
2018-12-23T14:22:07.996Z,23.20
2018-12-23T14:35:35.030Z,12.03
2018-12-23T14:38:04.172Z,15.37
2018-12-23T14:40:32.215Z,11.33
2018-12-23T14:43:00.857Z,10.47
2018-12-23T14:45:29.247Z,13.90
2018-12-23T14:48:06.967Z,28.53
2018-12-23T14:50:54.505Z,15.10
2018-12-23T14:53:23.161Z,14.53
2018-12-23T14:55:54.030Z,15.77
2018-12-23T14:58:25.203Z,17.10
2018-12-23T15:00:54.638Z,14.40
2018-12-23T15:03:24.401Z,10.30
2018-12-23T15:06:08.863Z,18.83
2018-12-23T15:08:41.749Z,10.33
2018-12-23T15:11:37.536Z,11.93
2018-12-23T15:14:13.085Z,7.90
2018-12-23T15:16:46.749Z,10.83
2018-12-23T15:22:26.219Z,8.17
2018-12-23T15:25:10.218Z,10.40
2018-12-23T15:27:45.072Z,7.20
2018-12-23T15:30:24.595Z,15.20
2018-12-23T15:32:52.506Z,12.70
2018-12-23T15:35:21.754Z,6.37
2018-12-23T15:37:50.207Z,10.40
2018-12-23T15:40:25.561Z,5.83
2018-12-23T15:42:53.736Z,7.90
2018-12-23T15:45:22.097Z,10.33
2018-12-23T15:47:51.381Z,11.17
2018-12-23T15:50:39.655Z,8.10
2018-12-23T15:53:07.780Z,7.30
2018-12-23T15:55:36.550Z,5.27
2018-12-23T15:58:06.247Z,11.43
2018-12-23T16:00:35.747Z,11.23
2018-12-23T16:03:04.267Z,9.50
2018-12-23T16:06:02.408Z,9.73
2018-12-23T16:08:33.022Z,13.20
2018-12-23T16:11:01.557Z,10.27
2018-12-23T16:13:29.980Z,8.50
2018-12-23T16:15:58.059Z,9.90
2018-12-23T16:18:26.200Z,8.00
2018-12-23T16:21:01.042Z,7.87
2018-12-23T16:23:29.027Z,12.33
2018-12-23T16:28:38.532Z,5.23
2018-12-23T16:31:14.458Z,4.27
2018-12-23T16:33:42.425Z,10.90
2018-12-23T16:36:10.511Z,7.70
2018-12-23T16:38:39.049Z,9.27
2018-12-23T16:41:08.760Z,9.20
2018-12-23T16:43:37.828Z,7.67
2018-12-23T16:46:07.003Z,10.93
2018-12-23T16:48:37.017Z,15.37
2018-12-23T16:51:06.877Z,14.00
2018-12-23T16:53:37.818Z,14.33
2018-12-23T16:56:12.506Z,8.70
2018-12-23T16:58:41.499Z,8.83
2018-12-23T17:01:10.454Z,12.90
2018-12-23T17:03:39.245Z,8.83
2018-12-23T17:06:10.037Z,11.47
2018-12-23T17:08:38.757Z,8.80
2018-12-23T17:11:07.440Z,9.57
2018-12-23T17:13:40.069Z,6.70
2018-12-23T17:16:08.731Z,8.17
2018-12-23T17:18:38.481Z,6.73
2018-12-23T17:21:09.600Z,6.80
2018-12-23T17:23:40.414Z,8.97
2018-12-23T17:28:52.260Z,10.30
2018-12-23T17:31:28.302Z,6.83
2018-12-23T17:34:02.037Z,5.00
2018-12-23T17:36:43.448Z,7.30
2018-12-23T17:39:12.630Z,9.77
2018-12-23T17:42:07.072Z,7.27
2018-12-23T17:47:19.657Z,7.47
2018-12-23T17:49:49.073Z,5.90
2018-12-23T17:52:23.094Z,5.57
2018-12-23T17:54:47.213Z,5.00
2018-12-23T17:57:18.144Z,4.73
2018-12-23T17:59:47.237Z,5.97
2018-12-23T18:05:19.711Z,5.87
2018-12-23T18:19:18.697Z,8.20
2018-12-23T18:24:29.365Z,7.60
2018-12-23T18:37:56.585Z,7.10
2018-12-23T18:40:33.378Z,5.60
2018-12-23T18:43:05.863Z,7.20
2018-12-23T18:45:37.387Z,7.57
2018-12-23T18:48:08.044Z,8.90
2018-12-23T18:50:45.588Z,7.30
2018-12-23T18:53:12.971Z,8.67
2018-12-23T19:01:58.405Z,16.83
2018-12-23T19:04:32.600Z,10.80
2018-12-23T19:51:00.938Z,14.83
2018-12-23T20:18:46.603Z,8.80
2018-12-23T20:21:53.841Z,10.37
2018-12-23T20:30:38.516Z,8.40
2018-12-23T21:00:38.020Z,3.07
2018-12-23T21:10:12.691Z,4.40
2018-12-23T21:19:50.161Z,2.00
2018-12-23T21:25:59.142Z,1.83
2018-12-23T21:39:53.910Z,1.40
2018-12-23T21:45:55.233Z,1.30
2018-12-23T21:52:27.276Z,2.50
2018-12-23T21:55:54.894Z,1.23
2018-12-23T21:59:10.088Z,1.20
2018-12-23T22:02:17.027Z,1.00
2018-12-23T22:07:56.256Z,0.93
2018-12-23T22:10:41.710Z,1.00
2018-12-23T22:13:23.961Z,1.30
2018-12-23T22:15:54.298Z,0.90
2018-12-23T22:18:34.205Z,0.80
2018-12-23T22:21:16.401Z,0.90
2018-12-23T22:26:20.263Z,1.30
2018-12-23T22:33:57.323Z,0.90
2018-12-23T22:36:40.817Z,0.80
2018-12-23T22:39:24.006Z,1.10
2018-12-23T22:41:52.648Z,1.47
2018-12-23T22:44:20.951Z,0.70
2018-12-23T22:46:52.815Z,1.13
2018-12-23T22:52:36.015Z,0.70
2018-12-23T22:58:19.484Z,0.77
2018-12-23T23:00:51.535Z,0.60
2018-12-23T23:09:31.387Z,1.33
2018-12-23T23:12:00.284Z,1.27
2018-12-23T23:14:43.479Z,0.57
2018-12-23T23:17:19.525Z,0.60
2018-12-23T23:22:38.997Z,2.53
2018-12-23T23:25:11.776Z,0.67
2018-12-23T23:34:02.575Z,0.60
2018-12-23T23:39:42.345Z,8.57
2018-12-23T23:42:33.242Z,2.83
